Time;durP1;ratioP1;P1;durP2;ratioP2;P2;SDS_P1;SDS_P2;PMS_P1;PMS_P2;Temp;Humidity;BMP_temperature;BMP_pressure;BME280_temperature;BME280_humidity;BME280_pressure;Samples;Min_cycle;Max_cycle;Signal;HPM_P1;HPM_P2
2022/03/29 00:00:51;;;;;;;21.48;14.82;;;7.70;99.90;;;;;;5027313;28;20096;-66
2022/03/29 00:03:16;;;;;;;22.20;14.35;;;7.70;99.90;;;;;;5027368;28;20502;-66
2022/03/29 00:05:42;;;;;;;20.20;14.55;;;7.70;99.90;;;;;;5028642;28;20037;-66
2022/03/29 00:08:07;;;;;;;21.48;15.32;;;7.60;99.90;;;;;;5015341;28;20037;-66
2022/03/29 00:10:33;;;;;;;22.65;14.85;;;7.60;99.90;;;;;;5030723;28;20047;-66
2022/03/29 00:12:59;;;;;;;21.58;13.98;;;7.60;99.90;;;;;;5014735;28;20081;-66
2022/03/29 00:15:25;;;;;;;19.30;14.68;;;7.70;99.90;;;;;;5031854;28;20048;-66
2022/03/29 00:17:51;;;;;;;22.58;15.23;;;7.80;99.90;;;;;;5031076;28;20116;-67
2022/03/29 00:20:17;;;;;;;20.27;14.43;;;7.70;99.90;;;;;;5031722;28;20123;-66
2022/03/29 00:22:44;;;;;;;20.23;14.57;;;7.70;99.90;;;;;;5030058;28;20037;-66
2022/03/29 00:25:10;;;;;;;22.98;14.90;;;7.80;99.90;;;;;;5015322;28;20051;-66
2022/03/29 00:27:36;;;;;;;21.67;14.60;;;7.80;99.90;;;;;;5030272;28;20124;-66
2022/03/29 00:30:07;;;;;;;23.08;15.45;;;7.80;99.90;;;;;;5031569;28;20049;-66
2022/03/29 00:32:34;;;;;;;22.05;15.00;;;7.90;99.90;;;;;;5030572;28;20046;-67
2022/03/29 00:35:00;;;;;;;23.45;14.48;;;7.90;99.90;;;;;;5031984;28;20387;-67
2022/03/29 00:37:25;;;;;;;25.52;17.25;;;7.80;99.90;;;;;;5014306;28;20045;-67
2022/03/29 00:39:51;;;;;;;25.92;16.05;;;7.80;99.90;;;;;;5031585;28;20041;-66
2022/03/29 00:42:17;;;;;;;22.83;15.57;;;7.80;99.90;;;;;;5025739;28;20025;-66
2022/03/29 00:44:42;;;;;;;23.48;15.07;;;7.70;99.90;;;;;;5028112;28;20034;-66
2022/03/29 00:47:08;;;;;;;21.98;14.57;;;7.70;99.90;;;;;;5030722;28;20037;-67
2022/03/29 00:49:34;;;;;;;24.25;14.93;;;7.80;99.90;;;;;;5031453;28;20489;-66
2022/03/29 00:52:01;;;;;;;23.42;15.15;;;7.70;99.90;;;;;;5029139;28;20092;-66
2022/03/29 00:54:28;;;;;;;23.55;15.27;;;7.70;99.90;;;;;;5031743;28;20402;-66
2022/03/29 00:56:57;;;;;;;24.25;15.25;;;7.70;99.90;;;;;;5014490;28;20041;-66
2022/03/29 00:59:24;;;;;;;23.25;15.10;;;7.70;99.90;;;;;;5044418;28;20501;-66
2022/03/29 01:01:49;;;;;;;22.02;14.88;;;7.80;99.90;;;;;;5030442;28;20041;-66
2022/03/29 01:04:15;;;;;;;22.58;14.95;;;7.70;99.90;;;;;;5014175;28;20090;-66
2022/03/29 01:06:43;;;;;;;23.73;15.60;;;7.70;99.90;;;;;;5031567;28;20049;-66
2022/03/29 01:09:08;;;;;;;24.50;16.20;;;7.70;99.90;;;;;;5046675;28;20076;-66
2022/03/29 01:11:35;;;;;;;21.42;14.90;;;7.70;99.90;;;;;;5030661;28;20127;-66
2022/03/29 01:14:01;;;;;;;21.80;14.35;;;7.70;99.90;;;;;;5022132;28;20426;-66
2022/03/29 01:19:12;;;;;;;24.63;15.20;;;7.70;99.90;;;;;;5039443;28;20050;-66
2022/03/29 01:21:40;;;;;;;25.02;15.80;;;7.70;99.90;;;;;;5018388;28;20037;-66
2022/03/29 01:24:06;;;;;;;25.98;16.35;;;7.70;99.90;;;;;;5033937;28;20045;-67
2022/03/29 01:26:33;;;;;;;30.27;16.73;;;7.70;99.90;;;;;;5018485;28;20501;-66
2022/03/29 01:29:01;;;;;;;24.40;15.77;;;7.70;99.90;;;;;;5048388;28;20045;-66
2022/03/29 01:31:28;;;;;;;25.67;16.13;;;7.70;99.90;;;;;;5017475;28;20041;-66
2022/03/29 01:33:55;;;;;;;23.02;15.02;;;7.70;99.90;;;;;;5017400;28;20092;-66
2022/03/29 01:36:21;;;;;;;23.83;16.77;;;7.70;99.90;;;;;;5051354;28;20132;-66
2022/03/29 01:38:47;;;;;;;25.25;16.50;;;7.70;99.90;;;;;;5030793;28;20120;-66
2022/03/29 01:41:13;;;;;;;24.17;15.90;;;7.60;99.90;;;;;;5050932;28;20084;-66
2022/03/29 01:43:38;;;;;;;23.85;15.48;;;7.60;99.90;;;;;;5050194;28;20037;-66
2022/03/29 01:46:07;;;;;;;27.52;16.42;;;7.60;99.90;;;;;;5034129;28;20037;-66
2022/03/29 01:48:33;;;;;;;25.60;16.25;;;7.60;99.90;;;;;;5049586;28;20052;-66
2022/03/29 01:50:59;;;;;;;26.40;15.60;;;7.60;99.90;;;;;;5033896;28;20140;-66
2022/03/29 01:53:26;;;;;;;23.45;14.93;;;7.60;99.90;;;;;;5032712;28;20141;-66
2022/03/29 01:55:56;;;;;;;24.23;15.68;;;7.50;99.90;;;;;;5033870;28;20044;-66
2022/03/29 01:58:23;;;;;;;24.35;15.00;;;7.50;99.90;;;;;;5031959;28;20453;-67
2022/03/29 02:00:49;;;;;;;24.40;15.30;;;7.60;99.90;;;;;;5032790;28;20037;-66
2022/03/29 02:03:14;;;;;;;25.85;15.48;;;7.50;99.90;;;;;;5032981;28;20090;-66
2022/03/29 02:05:40;;;;;;;25.42;15.75;;;7.60;99.90;;;;;;5017471;28;20041;-66
2022/03/29 02:08:07;;;;;;;22.27;15.05;;;7.60;99.90;;;;;;5033140;28;20136;-66
2022/03/29 02:10:33;;;;;;;23.63;15.02;;;7.50;99.90;;;;;;5032689;28;20086;-66
2022/03/29 02:12:59;;;;;;;23.85;15.55;;;7.50;99.90;;;;;;5032803;28;20402;-66
2022/03/29 02:15:25;;;;;;;26.08;15.43;;;7.50;99.90;;;;;;5049311;28;20048;-66
2022/03/29 02:17:51;;;;;;;24.27;14.60;;;7.50;99.90;;;;;;5017198;28;20049;-66
2022/03/29 02:20:17;;;;;;;23.23;15.68;;;7.50;99.90;;;;;;5049212;28;20048;-66
2022/03/29 02:22:44;;;;;;;26.30;15.52;;;7.50;99.90;;;;;;5033688;28;20095;-66
2022/03/29 02:25:10;;;;;;;24.08;16.38;;;7.50;99.90;;;;;;5015866;28;20390;-66
2022/03/29 02:27:41;;;;;;;22.55;15.82;;;7.60;99.90;;;;;;5017110;28;20034;-67
2022/03/29 02:30:08;;;;;;;25.98;16.00;;;7.60;99.90;;;;;;5015661;28;20191;-66
2022/03/29 02:32:34;;;;;;;23.77;16.15;;;7.60;99.90;;;;;;5033465;28;20077;-66
2022/03/29 02:35:00;;;;;;;22.77;15.20;;;7.60;99.90;;;;;;5032442;28;20115;-67
2022/03/29 02:37:25;;;;;;;21.52;14.52;;;7.60;99.90;;;;;;5016851;28;20049;-66
2022/03/29 02:39:51;;;;;;;24.33;15.13;;;7.60;99.90;;;;;;5032222;28;20034;-66
2022/03/29 02:42:16;;;;;;;24.13;15.90;;;7.60;99.90;;;;;;5033433;28;20125;-66
2022/03/29 02:44:42;;;;;;;23.63;15.52;;;7.60;99.90;;;;;;5032128;28;20108;-66
2022/03/29 02:47:08;;;;;;;24.50;15.73;;;7.60;99.90;;;;;;5033196;28;20091;-66
2022/03/29 02:49:33;;;;;;;24.67;15.43;;;7.60;99.90;;;;;;5032120;28;20038;-66
2022/03/29 02:51:59;;;;;;;23.42;15.32;;;7.60;99.90;;;;;;5032946;28;20054;-66
2022/03/29 02:54:24;;;;;;;20.77;14.25;;;7.70;99.90;;;;;;5032315;28;20044;-66
2022/03/29 02:56:50;;;;;;;24.05;15.77;;;7.60;99.90;;;;;;5031669;28;20044;-66
2022/03/29 02:59:16;;;;;;;23.90;15.30;;;7.60;99.90;;;;;;5029591;28;20033;-66
2022/03/29 03:01:41;;;;;;;25.08;16.33;;;7.60;99.90;;;;;;5031038;28;20094;-67
2022/03/29 03:04:07;;;;;;;23.58;16.13;;;7.60;99.90;;;;;;5032924;28;20071;-66
2022/03/29 03:06:33;;;;;;;24.67;15.77;;;7.60;99.90;;;;;;5031787;28;20041;-66
2022/03/29 03:08:59;;;;;;;25.05;16.65;;;7.70;99.90;;;;;;5015459;28;20040;-66
2022/03/29 03:11:26;;;;;;;27.52;16.95;;;7.60;99.90;;;;;;5032741;28;20053;-66
2022/03/29 03:13:52;;;;;;;24.70;16.63;;;7.60;99.90;;;;;;5012259;28;20498;-66
2022/03/29 03:16:17;;;;;;;26.05;17.20;;;7.70;99.90;;;;;;5018647;28;20078;-66
2022/03/29 03:18:43;;;;;;;23.40;16.15;;;7.60;99.90;;;;;;5013300;28;20033;-66
2022/03/29 03:21:09;;;;;;;26.83;17.33;;;7.60;99.90;;;;;;5015959;28;20556;-66
2022/03/29 03:23:35;;;;;;;27.85;17.48;;;7.60;99.90;;;;;;5048435;28;20063;-66
2022/03/29 03:26:01;;;;;;;27.83;17.75;;;7.60;99.90;;;;;;5032737;28;20045;-66
2022/03/29 03:28:26;;;;;;;25.70;16.40;;;7.60;99.90;;;;;;5031374;28;20080;-67
2022/03/29 03:30:53;;;;;;;28.35;17.95;;;7.50;99.90;;;;;;5032319;28;20045;-66
2022/03/29 03:33:19;;;;;;;27.33;17.67;;;7.50;99.90;;;;;;5015880;28;20053;-66
2022/03/29 03:35:45;;;;;;;27.55;17.70;;;7.50;99.90;;;;;;5015413;28;20402;-66
2022/03/29 03:38:11;;;;;;;25.65;17.00;;;7.60;99.90;;;;;;5015806;28;20052;-66
2022/03/29 03:40:37;;;;;;;27.77;18.08;;;7.50;99.90;;;;;;5013045;28;20485;-66
2022/03/29 03:43:03;;;;;;;27.38;17.23;;;7.50;99.90;;;;;;5014132;28;20598;-66
2022/03/29 03:45:29;;;;;;;26.35;17.33;;;7.60;99.90;;;;;;5047793;28;20042;-67
2022/03/29 03:47:55;;;;;;;28.80;18.42;;;7.60;99.90;;;;;;5032520;28;20142;-66
2022/03/29 03:50:20;;;;;;;28.95;18.35;;;7.50;99.90;;;;;;5029614;28;20136;-66
2022/03/29 03:52:46;;;;;;;31.83;18.30;;;7.50;99.90;;;;;;5031920;28;20049;-66
2022/03/29 03:55:12;;;;;;;29.83;17.85;;;7.50;99.90;;;;;;5000214;28;20045;-66
2022/03/29 03:57:37;;;;;;;25.17;17.30;;;7.40;99.90;;;;;;4995869;28;20038;-66
2022/03/29 04:00:05;;;;;;;28.10;16.67;;;7.40;99.90;;;;;;5011163;28;20116;-66
2022/03/29 04:02:30;;;;;;;26.23;16.77;;;7.50;99.90;;;;;;4995950;28;20068;-66
2022/03/29 04:04:56;;;;;;;25.48;16.77;;;7.50;99.90;;;;;;5027874;28;20084;-66
2022/03/29 04:07:21;;;;;;;26.85;17.17;;;7.50;99.90;;;;;;5012427;28;20053;-66
2022/03/29 04:09:47;;;;;;;27.90;16.75;;;7.40;99.90;;;;;;5011073;28;20038;-66
2022/03/29 04:12:13;;;;;;;28.48;17.10;;;7.40;99.90;;;;;;5012173;28;20048;-66
2022/03/29 04:14:38;;;;;;;26.80;16.15;;;7.40;99.90;;;;;;5011064;28;20116;-66
2022/03/29 04:17:04;;;;;;;26.42;17.00;;;7.40;99.90;;;;;;5012320;28;20042;-66
2022/03/29 04:19:30;;;;;;;25.02;15.63;;;7.40;99.90;;;;;;5010230;28;20210;-66
2022/03/29 04:21:55;;;;;;;28.02;17.42;;;7.50;99.90;;;;;;5012148;28;20038;-66
2022/03/29 04:24:21;;;;;;;28.33;16.33;;;7.50;99.90;;;;;;5002977;28;20043;-67
2022/03/29 04:26:48;;;;;;;26.98;17.05;;;7.50;99.90;;;;;;4992437;28;20038;-66
2022/03/29 04:29:14;;;;;;;24.30;15.95;;;7.50;99.90;;;;;;5001297;28;20042;-66
2022/03/29 04:31:40;;;;;;;24.25;15.30;;;7.50;99.90;;;;;;5011902;28;20387;-66
2022/03/29 04:34:05;;;;;;;28.73;16.92;;;7.50;99.90;;;;;;5011200;28;20046;-66
2022/03/29 04:36:31;;;;;;;26.55;16.13;;;7.50;99.90;;;;;;5028649;28;20042;-66
2022/03/29 04:39:00;;;;;;;25.98;17.45;;;7.50;99.90;;;;;;5027283;28;20042;-66
2022/03/29 04:41:25;;;;;;;30.10;18.33;;;7.40;99.90;;;;;;5011796;28;20482;-66
2022/03/29 04:43:51;;;;;;;27.95;17.40;;;7.40;99.90;;;;;;5010806;28;20064;-66
2022/03/29 04:46:17;;;;;;;25.75;17.25;;;7.40;99.90;;;;;;5001401;28;20117;-66
2022/03/29 04:48:43;;;;;;;26.10;16.48;;;7.40;99.90;;;;;;4994225;28;20044;-66
2022/03/29 04:51:09;;;;;;;26.45;16.52;;;7.40;99.90;;;;;;5030835;28;20146;-67
2022/03/29 04:53:34;;;;;;;28.13;17.42;;;7.50;99.90;;;;;;5034135;28;20077;-66
2022/03/29 04:56:00;;;;;;;28.65;17.67;;;7.40;99.90;;;;;;5016147;28;20045;-66
2022/03/29 04:58:26;;;;;;;28.33;16.73;;;7.40;99.90;;;;;;5000592;28;20064;-66
2022/03/29 05:00:52;;;;;;;29.00;17.17;;;7.40;99.90;;;;;;5052118;28;20033;-66
2022/03/29 05:03:18;;;;;;;26.80;17.15;;;7.40;99.90;;;;;;5050952;28;20046;-66
2022/03/29 05:05:44;;;;;;;29.98;16.67;;;7.40;99.90;;;;;;5018605;28;20048;-67
2022/03/29 05:08:09;;;;;;;26.75;16.73;;;7.40;99.90;;;;;;5035352;28;20429;-66
2022/03/29 05:10:35;;;;;;;28.83;16.70;;;7.40;99.90;;;;;;5017913;28;20045;-66
2022/03/29 05:13:00;;;;;;;27.67;17.00;;;7.40;99.90;;;;;;5035194;28;20077;-66
2022/03/29 05:15:26;;;;;;;27.65;16.90;;;7.40;99.90;;;;;;5016959;28;20041;-66
2022/03/29 05:17:51;;;;;;;30.30;17.75;;;7.30;99.90;;;;;;5034746;28;20084;-66
2022/03/29 05:20:18;;;;;;;25.13;16.33;;;7.40;99.90;;;;;;5030961;28;20040;-66
2022/03/29 05:22:48;;;;;;;28.05;16.58;;;7.40;99.90;;;;;;5051374;28;20048;-66
2022/03/29 05:25:16;;;;;;;26.17;16.23;;;7.40;99.90;;;;;;5050271;28;20029;-66
2022/03/29 05:27:42;;;;;;;28.77;17.17;;;7.40;99.90;;;;;;5018161;28;20042;-66
2022/03/29 05:30:09;;;;;;;28.23;16.60;;;7.40;99.90;;;;;;5049411;28;20117;-66
2022/03/29 05:32:35;;;;;;;26.98;16.63;;;7.40;99.90;;;;;;5034482;28;20060;-66
2022/03/29 05:35:00;;;;;;;30.67;18.65;;;7.40;99.90;;;;;;5033411;28;20443;-66
2022/03/29 05:37:26;;;;;;;28.92;17.23;;;7.40;99.90;;;;;;5034451;28;20099;-66
2022/03/29 05:39:51;;;;;;;26.77;16.58;;;7.40;99.90;;;;;;5014071;28;20505;-67
2022/03/29 05:42:17;;;;;;;26.85;17.10;;;7.40;99.90;;;;;;5024417;28;20037;-66
2022/03/29 05:44:43;;;;;;;27.88;17.17;;;7.40;99.90;;;;;;5012284;28;20038;-66
2022/03/29 05:49:53;;;;;;;26.98;17.15;;;7.40;99.90;;;;;;5029968;28;20120;-66
2022/03/29 05:52:21;;;;;;;29.73;16.95;;;7.40;99.90;;;;;;5017578;28;20556;-66
2022/03/29 05:54:47;;;;;;;29.15;17.20;;;7.50;99.90;;;;;;5015876;28;20041;-66
2022/03/29 05:57:17;;;;;;;26.55;16.45;;;7.50;99.90;;;;;;5034036;28;20482;-66
2022/03/29 05:59:44;;;;;;;29.73;17.27;;;7.50;99.90;;;;;;5031976;28;20394;-66
2022/03/29 06:02:09;;;;;;;30.15;18.40;;;7.50;99.90;;;;;;5032730;28;20532;-66
2022/03/29 06:04:36;;;;;;;25.98;16.13;;;7.50;99.90;;;;;;5029973;28;20029;-66
2022/03/29 06:07:04;;;;;;;26.08;17.27;;;7.40;99.90;;;;;;5031715;28;20486;-66
2022/03/29 06:09:33;;;;;;;29.55;16.90;;;7.40;99.90;;;;;;5047420;28;20553;-66
2022/03/29 06:11:59;;;;;;;26.45;17.27;;;7.50;99.90;;;;;;5031954;28;20092;-66
2022/03/29 06:14:24;;;;;;;25.00;16.65;;;7.40;99.90;;;;;;5013575;28;20033;-66
2022/03/29 06:16:50;;;;;;;26.48;16.55;;;7.40;99.90;;;;;;5030769;28;20037;-66
2022/03/29 06:19:15;;;;;;;28.25;17.15;;;7.50;99.90;;;;;;5032698;28;20494;-66
2022/03/29 06:21:41;;;;;;;30.33;18.30;;;7.50;99.90;;;;;;5033655;28;20038;-66
2022/03/29 06:24:08;;;;;;;29.55;17.50;;;7.50;99.90;;;;;;5032725;28;20095;-66
2022/03/29 06:26:39;;;;;;;28.80;17.95;;;7.60;99.90;;;;;;5017139;28;20038;-66
2022/03/29 06:29:06;;;;;;;30.42;19.45;;;7.60;99.90;;;;;;5031388;28;20080;-66
2022/03/29 06:31:32;;;;;;;29.13;16.98;;;7.60;99.90;;;;;;5033614;28;20502;-67
2022/03/29 06:33:57;;;;;;;28.63;17.50;;;7.50;99.90;;;;;;5016263;28;20052;-66
2022/03/29 06:36:23;;;;;;;28.23;18.38;;;7.60;99.90;;;;;;5033443;28;20541;-67
2022/03/29 06:38:49;;;;;;;28.88;17.67;;;7.60;99.90;;;;;;5029383;28;20049;-66
2022/03/29 06:41:15;;;;;;;29.58;17.88;;;7.60;99.90;;;;;;5032556;28;20064;-66
2022/03/29 06:43:41;;;;;;;31.17;18.83;;;7.80;99.90;;;;;;5031290;28;20410;-66
2022/03/29 06:46:08;;;;;;;29.15;17.35;;;7.80;99.90;;;;;;5032157;28;20044;-66
2022/03/29 06:48:37;;;;;;;29.58;18.70;;;7.70;99.90;;;;;;5031022;28;20155;-66
2022/03/29 06:51:02;;;;;;;30.90;18.80;;;7.60;99.90;;;;;;5032419;28;20057;-66
2022/03/29 06:53:28;;;;;;;27.40;17.25;;;7.60;99.90;;;;;;5032986;28;20053;-66
2022/03/29 06:55:54;;;;;;;29.52;18.17;;;7.60;99.90;;;;;;5032025;28;20041;-66
2022/03/29 06:58:20;;;;;;;28.70;17.85;;;7.60;99.90;;;;;;5030702;28;20490;-67
2022/03/29 07:00:46;;;;;;;31.50;17.55;;;7.60;99.90;;;;;;5033169;28;20067;-66
2022/03/29 07:03:12;;;;;;;29.58;18.58;;;7.60;99.90;;;;;;5031652;28;20044;-66
2022/03/29 07:05:42;;;;;;;32.10;18.92;;;7.60;99.90;;;;;;5032786;28;20042;-67
2022/03/29 07:08:10;;;;;;;28.85;18.42;;;7.60;99.90;;;;;;5032375;28;20051;-66
2022/03/29 07:13:22;;;;;;;30.58;17.55;;;7.70;99.90;;;;;;5014170;28;20399;-67
2022/03/29 07:15:51;;;;;;;30.13;19.17;;;7.60;99.90;;;;;;5014972;28;20049;-66
2022/03/29 07:18:17;;;;;;;31.77;19.75;;;7.70;99.90;;;;;;5032564;28;20048;-67
2022/03/29 07:20:43;;;;;;;30.85;18.33;;;7.70;99.90;;;;;;5030610;28;20041;-67
2022/03/29 07:23:09;;;;;;;28.02;18.27;;;7.70;99.90;;;;;;5032450;28;20045;-66
2022/03/29 07:25:35;;;;;;;29.67;19.73;;;7.70;99.90;;;;;;5031825;28;20038;-67
2022/03/29 07:28:02;;;;;;;32.28;18.60;;;7.70;99.90;;;;;;5032775;28;20405;-67
2022/03/29 07:30:28;;;;;;;34.78;20.08;;;7.70;99.90;;;;;;5030654;28;20033;-66
2022/03/29 07:32:57;;;;;;;32.95;18.90;;;7.70;99.90;;;;;;5032309;28;20049;-66
2022/03/29 07:35:25;;;;;;;29.63;18.27;;;7.70;99.90;;;;;;5014013;28;20034;-67
2022/03/29 07:37:51;;;;;;;25.17;15.25;;;7.80;99.90;;;;;;5046043;28;20137;-66
2022/03/29 07:40:20;;;;;;;30.17;18.23;;;7.90;99.90;;;;;;5049230;28;20045;-66
2022/03/29 07:42:46;;;;;;;31.38;19.27;;;7.90;99.90;;;;;;5031610;28;20041;-66
2022/03/29 07:45:12;;;;;;;33.35;19.90;;;8.00;99.90;;;;;;5032224;28;20034;-67
2022/03/29 07:47:39;;;;;;;29.80;18.25;;;8.10;99.90;;;;;;5029368;28;20482;-66
2022/03/29 07:50:10;;;;;;;29.05;19.63;;;8.30;99.90;;;;;;5013515;28;20056;-66
2022/03/29 07:52:37;;;;;;;33.05;20.13;;;8.30;99.90;;;;;;5027388;28;20403;-67
2022/03/29 07:55:06;;;;;;;36.13;18.92;;;8.30;99.90;;;;;;5027949;28;20120;-66
2022/03/29 07:57:32;;;;;;;29.60;19.13;;;8.40;99.90;;;;;;5014703;28;20042;-67
2022/03/29 07:59:57;;;;;;;30.25;18.85;;;8.50;99.90;;;;;;5014378;28;20057;-66
2022/03/29 08:02:23;;;;;;;29.17;18.33;;;8.50;99.90;;;;;;5029868;28;20114;-67
2022/03/29 08:04:49;;;;;;;32.67;19.73;;;8.70;99.90;;;;;;5012539;28;20030;-67
2022/03/29 08:07:14;;;;;;;35.58;20.30;;;8.70;99.90;;;;;;5012085;28;20505;-66
2022/03/29 08:09:40;;;;;;;28.38;18.45;;;8.70;99.90;;;;;;5027413;28;20460;-66
2022/03/29 08:12:06;;;;;;;37.25;21.00;;;8.70;99.90;;;;;;5028399;28;20029;-66
2022/03/29 08:14:31;;;;;;;32.78;20.10;;;8.80;99.90;;;;;;5013027;28;20037;-66
2022/03/29 08:16:57;;;;;;;33.25;19.25;;;8.70;99.90;;;;;;5028874;28;20077;-66
2022/03/29 08:19:24;;;;;;;31.33;18.27;;;8.80;99.90;;;;;;5011073;28;20038;-66
2022/03/29 08:21:50;;;;;;;33.42;18.08;;;8.80;99.90;;;;;;5021494;28;20049;-66
2022/03/29 08:24:18;;;;;;;28.60;18.60;;;8.70;99.90;;;;;;5020609;28;20034;-67
2022/03/29 08:26:45;;;;;;;36.55;19.20;;;8.80;99.90;;;;;;5006765;28;20040;-67
2022/03/29 08:29:12;;;;;;;34.15;18.45;;;8.90;99.90;;;;;;5032657;28;20053;-66
2022/03/29 08:31:38;;;;;;;32.67;18.23;;;8.90;99.90;;;;;;5021007;28;20045;-66
2022/03/29 08:34:06;;;;;;;32.78;18.65;;;8.90;99.90;;;;;;5033507;28;20516;-66
2022/03/29 08:36:31;;;;;;;32.25;19.02;;;9.10;99.90;;;;;;5034628;28;20041;-67
2022/03/29 08:38:57;;;;;;;34.00;20.02;;;8.90;99.90;;;;;;5015191;28;20438;-67
2022/03/29 08:41:25;;;;;;;34.10;19.50;;;9.10;99.90;;;;;;5032269;28;20037;-67
2022/03/29 08:43:51;;;;;;;33.58;20.08;;;9.00;99.90;;;;;;5023658;28;20498;-66
2022/03/29 08:46:17;;;;;;;30.50;19.08;;;9.10;99.90;;;;;;5034401;28;20069;-66
2022/03/29 08:48:46;;;;;;;36.53;20.13;;;9.30;99.90;;;;;;5035455;28;20461;-66
2022/03/29 08:51:12;;;;;;;32.00;18.98;;;9.30;99.90;;;;;;5034735;28;20072;-66
2022/03/29 08:53:39;;;;;;;30.95;17.98;;;9.30;99.90;;;;;;5032954;28;20486;-67
2022/03/29 08:56:04;;;;;;;29.25;19.27;;;9.30;99.90;;;;;;5034073;28;20557;-66
2022/03/29 08:58:30;;;;;;;29.17;18.60;;;9.30;99.90;;;;;;5033892;28;20037;-66
2022/03/29 09:00:55;;;;;;;33.88;20.15;;;9.40;99.90;;;;;;5017594;28;20065;-67
2022/03/29 09:03:21;;;;;;;28.90;19.85;;;9.40;99.90;;;;;;5031633;28;20045;-67
2022/03/29 09:05:48;;;;;;;37.00;19.40;;;9.10;99.90;;;;;;5017948;28;20180;-66
2022/03/29 09:08:15;;;;;;;28.88;18.98;;;9.40;99.90;;;;;;5042179;28;20049;-66
2022/03/29 09:10:49;;;;;;;30.08;19.50;;;9.50;99.90;;;;;;5016775;28;20046;-67
2022/03/29 09:13:31;;;;;;;32.63;19.02;;;9.60;99.90;;;;;;5048561;28;20041;-67
2022/03/29 09:15:58;;;;;;;33.67;20.75;;;9.30;99.90;;;;;;5014670;28;20037;-66
2022/03/29 09:18:25;;;;;;;31.50;18.70;;;9.00;99.90;;;;;;5027887;28;20510;-66
2022/03/29 09:21:11;;;;;;;32.08;19.27;;;9.10;99.90;;;;;;5029706;28;20037;-66
2022/03/29 09:23:37;;;;;;;33.35;20.90;;;9.10;99.90;;;;;;5026843;28;20127;-66
2022/03/29 09:26:04;;;;;;;34.65;19.65;;;9.10;99.90;;;;;;5030586;28;20065;-66
2022/03/29 09:28:38;;;;;;;30.00;19.30;;;9.20;99.90;;;;;;5035064;28;20507;-66
2022/03/29 09:31:22;;;;;;;29.50;19.67;;;9.20;99.90;;;;;;5031571;28;20045;-66
2022/03/29 09:33:48;;;;;;;29.42;19.17;;;9.20;99.90;;;;;;5046126;28;20457;-66
2022/03/29 09:36:20;;;;;;;28.73;18.23;;;9.10;99.90;;;;;;5030640;28;20052;-66
2022/03/29 09:38:48;;;;;;;30.00;18.88;;;9.30;99.90;;;;;;5033286;28;20045;-67
2022/03/29 09:41:21;;;;;;;30.83;18.60;;;9.30;99.90;;;;;;5033122;28;20045;-67
2022/03/29 09:44:09;;;;;;;33.35;21.13;;;9.40;99.90;;;;;;5034532;28;20490;-66
2022/03/29 09:46:54;;;;;;;33.33;19.15;;;9.60;99.90;;;;;;5033323;28;20048;-67
2022/03/29 09:49:22;;;;;;;31.38;19.50;;;9.80;99.90;;;;;;5013751;28;20052;-66
2022/03/29 09:52:07;;;;;;;30.65;18.73;;;9.80;99.90;;;;;;5008280;28;20049;-66
2022/03/29 09:54:33;;;;;;;31.35;18.88;;;9.90;99.90;;;;;;5030530;28;20052;-66
2022/03/29 09:56:58;;;;;;;31.27;18.38;;;9.80;99.90;;;;;;5032455;28;20045;-66
2022/03/29 09:59:24;;;;;;;30.50;17.88;;;10.00;99.90;;;;;;5027177;28;20506;-66
2022/03/29 10:01:54;;;;;;;25.58;16.83;;;10.00;99.90;;;;;;5012965;28;20088;-66
2022/03/29 10:04:21;;;;;;;29.70;17.30;;;10.00;99.90;;;;;;5028523;28;20041;-67
2022/03/29 10:06:48;;;;;;;32.80;16.90;;;10.10;99.90;;;;;;5033516;28;20462;-67
2022/03/29 10:09:25;;;;;;;27.90;15.82;;;10.20;99.90;;;;;;5018360;28;20098;-66
2022/03/29 10:11:52;;;;;;;26.50;15.95;;;10.10;99.90;;;;;;5053595;28;20405;-66
2022/03/29 10:14:21;;;;;;;27.90;15.13;;;10.20;99.90;;;;;;5053269;28;20076;-67
2022/03/29 10:16:48;;;;;;;30.55;16.90;;;10.30;99.90;;;;;;5050370;28;20076;-66
2022/03/29 10:19:17;;;;;;;33.80;15.65;;;10.50;99.90;;;;;;5014928;28;20116;-66
2022/03/29 10:21:44;;;;;;;30.77;16.50;;;10.50;99.90;;;;;;5029213;28;20488;-66
2022/03/29 10:24:13;;;;;;;28.83;16.00;;;10.60;99.90;;;;;;5030574;28;20048;-66
2022/03/29 10:26:42;;;;;;;27.30;14.52;;;10.50;99.90;;;;;;5014285;28;20034;-66
2022/03/29 10:29:08;;;;;;;28.05;14.93;;;10.50;99.90;;;;;;5026675;28;20075;-66
2022/03/29 10:31:34;;;;;;;26.02;14.30;;;10.50;99.90;;;;;;5032896;28;20049;-66
2022/03/29 10:34:17;;;;;;;28.83;15.75;;;10.50;99.90;;;;;;5012572;28;20053;-66
2022/03/29 10:37:18;;;;;;;25.65;15.05;;;10.20;99.90;;;;;;5042550;28;20375;-66
2022/03/29 10:40:04;;;;;;;24.73;13.88;;;10.40;99.90;;;;;;5032507;28;20083;-66
2022/03/29 10:42:36;;;;;;;25.52;14.10;;;10.50;99.90;;;;;;5014442;28;20045;-66
2022/03/29 10:45:24;;;;;;;28.70;14.45;;;10.50;99.90;;;;;;5030823;28;20457;-66
2022/03/29 10:47:59;;;;;;;26.88;13.10;;;10.70;99.90;;;;;;5026937;28;20044;-66
2022/03/29 10:50:46;;;;;;;25.88;13.95;;;10.60;99.90;;;;;;5030995;28;20049;-67
2022/03/29 10:53:26;;;;;;;26.35;13.60;;;10.70;99.90;;;;;;5031927;28;20046;-66
2022/03/29 10:56:11;;;;;;;22.35;13.02;;;10.70;99.90;;;;;;5031553;28;20042;-66
2022/03/29 10:58:56;;;;;;;23.75;13.52;;;10.80;99.90;;;;;;5013107;28;20053;-66
2022/03/29 11:01:22;;;;;;;26.75;12.88;;;10.80;99.90;;;;;;5014654;28;20120;-66
2022/03/29 11:04:14;;;;;;;26.75;14.02;;;11.00;99.90;;;;;;5027690;28;20120;-66
2022/03/29 11:07:10;;;;;;;24.45;11.90;;;10.70;99.90;;;;;;5012005;28;20048;-67
2022/03/29 11:09:37;;;;;;;21.05;10.70;;;10.80;99.90;;;;;;5024605;28;20528;-66
2022/03/29 11:12:03;;;;;;;20.15;11.73;;;10.70;99.90;;;;;;5028136;28;20445;-66
2022/03/29 11:14:40;;;;;;;24.88;11.35;;;10.60;99.90;;;;;;5007460;28;20037;-66
2022/03/29 11:17:09;;;;;;;19.55;10.55;;;10.80;99.90;;;;;;5017183;28;20052;-66
2022/03/29 11:19:38;;;;;;;24.83;10.55;;;10.80;99.90;;;;;;5028097;28;20038;-66
2022/03/29 11:22:21;;;;;;;22.92;10.45;;;10.90;99.90;;;;;;5032327;28;20073;-67
2022/03/29 11:24:53;;;;;;;21.35;10.70;;;11.00;99.90;;;;;;5031674;28;20071;-66
2022/03/29 11:27:23;;;;;;;19.30;8.93;;;11.20;99.90;;;;;;5047147;28;20057;-67
2022/03/29 11:29:50;;;;;;;21.75;9.93;;;11.10;99.90;;;;;;5031369;28;20044;-67
2022/03/29 11:32:17;;;;;;;22.60;9.93;;;11.20;99.90;;;;;;5013180;28;20406;-66
2022/03/29 11:34:43;;;;;;;21.50;9.82;;;11.30;99.90;;;;;;5043311;28;20041;-67
2022/03/29 11:37:27;;;;;;;24.38;10.45;;;11.30;99.90;;;;;;5015180;28;20040;-67
2022/03/29 11:39:53;;;;;;;22.20;10.43;;;11.30;99.90;;;;;;5026762;28;20987;-67
2022/03/29 11:42:19;;;;;;;23.58;10.93;;;11.40;99.90;;;;;;5029717;28;20068;-67
2022/03/29 11:44:47;;;;;;;20.33;9.95;;;11.60;99.90;;;;;;5046623;28;20041;-66
2022/03/29 11:47:13;;;;;;;23.50;10.80;;;11.50;99.90;;;;;;5031085;28;20029;-67
2022/03/29 11:49:41;;;;;;;27.08;9.80;;;11.40;99.70;;;;;;5038575;28;20475;-66
2022/03/29 11:52:13;;;;;;;22.42;9.88;;;11.40;99.90;;;;;;5014901;28;20049;-66
2022/03/29 11:54:46;;;;;;;23.15;10.90;;;11.30;99.90;;;;;;5021399;28;20061;-66
2022/03/29 11:57:14;;;;;;;20.45;9.77;;;11.30;99.90;;;;;;5014304;28;20485;-67
2022/03/29 11:59:41;;;;;;;27.15;10.50;;;11.40;99.90;;;;;;5031028;28;20049;-66
2022/03/29 12:02:07;;;;;;;18.58;9.00;;;11.50;99.90;;;;;;5030865;28;20049;-66
2022/03/29 12:04:33;;;;;;;20.27;9.00;;;11.50;99.40;;;;;;5030527;28;20037;-67
2022/03/29 12:06:59;;;;;;;16.30;8.57;;;11.40;99.50;;;;;;5010998;28;20052;-67
2022/03/29 12:09:26;;;;;;;25.30;10.68;;;11.30;99.90;;;;;;5016117;28;20045;-67
2022/03/29 12:11:56;;;;;;;21.05;9.13;;;11.50;99.70;;;;;;5006895;28;20041;-67
2022/03/29 12:14:23;;;;;;;20.77;10.02;;;11.50;99.50;;;;;;5028274;28;20080;-66
2022/03/29 12:16:50;;;;;;;25.42;11.20;;;11.40;99.70;;;;;;5029982;28;20518;-67
2022/03/29 12:19:25;;;;;;;22.20;8.93;;;11.50;99.20;;;;;;5025874;28;20041;-67
2022/03/29 12:22:01;;;;;;;22.35;10.43;;;11.60;98.80;;;;;;5031532;28;20409;-67
2022/03/29 12:24:35;;;;;;;19.45;9.82;;;11.60;97.80;;;;;;5027023;28;20104;-67
2022/03/29 12:27:04;;;;;;;21.13;9.00;;;11.60;99.10;;;;;;5008996;28;20052;-66
2022/03/29 12:29:31;;;;;;;18.50;8.30;;;11.70;97.80;;;;;;5013323;28;20042;-67
2022/03/29 12:32:00;;;;;;;20.38;8.35;;;11.90;99.80;;;;;;5017926;28;20065;-67
2022/03/29 12:34:28;;;;;;;18.33;8.85;;;12.00;99.80;;;;;;5026430;28;20052;-66
2022/03/29 12:36:56;;;;;;;17.27;8.57;;;12.00;98.80;;;;;;5013029;28;20164;-67
2022/03/29 12:39:23;;;;;;;18.00;8.52;;;12.10;99.30;;;;;;5030420;28;20041;-67
2022/03/29 12:41:54;;;;;;;21.33;8.43;;;12.00;98.90;;;;;;5013427;28;20087;-67
2022/03/29 12:44:38;;;;;;;20.60;7.28;;;12.00;98.60;;;;;;5030128;28;20033;-67
2022/03/29 12:47:05;;;;;;;20.02;7.50;;;11.90;97.10;;;;;;5024653;28;20585;-67